Time,TemperatureF,DewpointF,PressureIn,WindDirection,WindDirectionDegrees,WindSpeedMPH,WindSpeedGustMPH,Humidity,HourlyPrecipIn,Conditions,Clouds,dailyrainin,SoftwareType,DateUTC
2013-08-17 00:00:00,72.7,68.6,29.78,NNE,28,0.0,12.0,87,0.00,,,0.00,Wunderground v.1.15,2013-08-17 05:00:00,
2013-08-17 00:05:00,72.4,68.3,29.78,NE,38,0.0,12.0,87,0.00,,,0.00,Wunderground v.1.15,2013-08-17 05:05:00,
2013-08-17 00:10:00,72.4,68.6,29.79,NE,38,0.0,12.0,88,0.00,,,0.00,Wunderground v.1.15,2013-08-17 05:10:00,
2013-08-17 00:20:00,72.7,68.6,29.79,East,79,2.0,12.0,87,0.00,,,0.00,Wunderground v.1.15,2013-08-17 05:20:00,
2013-08-17 00:30:00,73.2,68.8,29.79,ENE,63,1.0,1.0,86,0.00,,,0.00,Wunderground v.1.15,2013-08-17 05:30:00,
2013-08-17 00:35:00,73.5,68.7,29.79,East,99,1.0,6.0,85,0.00,,,0.00,Wunderground v.1.15,2013-08-17 05:35:00,
2013-08-17 00:40:00,73.3,68.5,29.79,East,87,1.0,1.0,85,0.00,,,0.00,Wunderground v.1.15,2013-08-17 05:40:00,
2013-08-17 00:45:00,73.0,68.6,29.79,East,80,1.0,12.0,86,0.00,,,0.00,Wunderground v.1.15,2013-08-17 05:45:00,
2013-08-17 00:55:00,72.8,68.4,29.79,East,88,1.0,12.0,86,0.00,,,0.00,Wunderground v.1.15,2013-08-17 05:55:00,
2013-08-17 01:00:00,72.6,68.2,29.79,ENE,75,0.0,12.0,86,0.00,,,0.00,Wunderground v.1.15,2013-08-17 06:00:00,
2013-08-17 01:05:00,72.2,67.8,29.79,East,82,1.0,12.0,86,0.00,,,0.00,Wunderground v.1.15,2013-08-17 06:05:00,
2013-08-17 01:10:00,72.1,68.0,29.79,ESE,103,2.0,12.0,87,0.00,,,0.00,Wunderground v.1.15,2013-08-17 06:10:00,
2013-08-17 01:15:00,72.1,68.0,29.79,East,100,1.0,12.0,87,0.00,,,0.00,Wunderground v.1.15,2013-08-17 06:15:00,
2013-08-17 01:20:00,72.6,68.5,29.79,East,87,1.0,1.0,87,0.00,,,0.00,Wunderground v.1.15,2013-08-17 06:20:00,
2013-08-17 01:25:00,73.0,68.2,29.79,East,86,0.0,12.0,85,0.00,,,0.00,Wunderground v.1.15,2013-08-17 06:25:00,
2013-08-17 01:35:00,72.7,67.6,29.79,ESE,104,0.0,12.0,84,0.00,,,0.00,Wunderground v.1.15,2013-08-17 06:35:00,
2013-08-17 01:40:00,72.1,67.7,29.79,ESE,107,0.0,12.0,86,0.00,,,0.00,Wunderground v.1.15,2013-08-17 06:40:00,
2013-08-17 01:45:00,71.8,67.7,29.79,ESE,107,0.0,12.0,87,0.00,,,0.00,Wunderground v.1.15,2013-08-17 06:45:00,
2013-08-17 01:50:00,71.6,67.5,29.79,ESE,107,0.0,12.0,87,0.00,,,0.00,Wunderground v.1.15,2013-08-17 06:50:00,
2013-08-17 01:55:00,71.5,67.4,29.79,ESE,106,0.0,12.0,87,0.00,,,0.00,Wunderground v.1.15,2013-08-17 06:55:00,
2013-08-17 02:00:00,71.9,67.8,29.79,ESE,106,0.0,12.0,87,0.00,,,0.00,Wunderground v.1.15,2013-08-17 07:00:00,
2013-08-17 02:05:00,72.3,67.9,29.79,ESE,105,0.0,12.0,86,0.00,,,0.00,Wunderground v.1.15,2013-08-17 07:05:00,
2013-08-17 02:10:00,72.6,68.2,29.79,ESE,105,0.0,12.0,86,0.00,,,0.00,Wunderground v.1.15,2013-08-17 07:10:00,
2013-08-17 02:15:00,73.0,68.2,29.79,ESE,102,0.0,12.0,85,0.00,,,0.00,Wunderground v.1.15,2013-08-17 07:15:00,
2013-08-17 02:20:00,72.6,67.8,29.79,ESE,102,0.0,12.0,85,0.00,,,0.00,Wunderground v.1.15,2013-08-17 07:20:00,
2013-08-17 02:25:00,72.1,67.7,29.78,East,101,0.0,12.0,86,0.00,,,0.00,Wunderground v.1.15,2013-08-17 07:25:00,
2013-08-17 02:35:00,71.7,67.6,29.78,ESE,102,0.0,12.0,87,0.00,,,0.00,Wunderground v.1.15,2013-08-17 07:35:00,
2013-08-17 02:40:00,71.9,67.8,29.78,ESE,102,0.0,12.0,87,0.00,,,0.00,Wunderground v.1.15,2013-08-17 07:40:00,
2013-08-17 02:45:00,72.2,67.8,29.78,ESE,102,0.0,12.0,86,0.00,,,0.00,Wunderground v.1.15,2013-08-17 07:45:00,
2013-08-17 02:50:00,72.4,68.0,29.78,ESE,102,0.0,12.0,86,0.00,,,0.00,Wunderground v.1.15,2013-08-17 07:50:00,
2013-08-17 02:55:00,72.3,67.5,29.78,East,101,0.0,12.0,85,0.00,,,0.00,Wunderground v.1.15,2013-08-17 07:55:00,
2013-08-17 03:00:00,71.9,67.5,29.78,East,96,0.0,12.0,86,0.00,,,0.00,Wunderground v.1.15,2013-08-17 08:00:00,
2013-08-17 03:10:00,71.2,67.1,29.78,ESE,107,0.0,12.0,87,0.00,,,0.00,Wunderground v.1.15,2013-08-17 08:10:00,
2013-08-17 03:15:00,70.8,67.1,29.78,ESE,107,0.0,12.0,88,0.00,,,0.00,Wunderground v.1.15,2013-08-17 08:15:00,
2013-08-17 03:20:00,70.6,66.9,29.78,ESE,108,0.0,12.0,88,0.00,,,0.00,Wunderground v.1.15,2013-08-17 08:20:00,
2013-08-17 03:25:00,70.4,67.0,29.78,ESE,108,0.0,12.0,89,0.00,,,0.00,Wunderground v.1.15,2013-08-17 08:25:00,
2013-08-17 03:30:00,70.2,66.8,29.78,ESE,108,0.0,12.0,89,0.00,,,0.00,Wunderground v.1.15,2013-08-17 08:30:00,
2013-08-17 03:40:00,70.7,67.6,29.78,ESE,107,0.0,12.0,90,0.00,,,0.00,Wunderground v.1.15,2013-08-17 08:40:00,
2013-08-17 03:50:00,71.4,67.7,29.78,NE,49,0.0,12.0,88,0.00,,,0.00,Wunderground v.1.15,2013-08-17 08:50:00,
2013-08-17 03:55:00,71.6,67.5,29.78,NE,50,0.0,12.0,87,0.00,,,0.00,Wunderground v.1.15,2013-08-17 08:55:00,
2013-08-17 04:00:00,70.9,67.2,29.78,NE,50,0.0,12.0,88,0.00,,,0.00,Wunderground v.1.15,2013-08-17 09:00:00,
2013-08-17 04:05:00,70.4,66.7,29.78,NE,50,0.0,12.0,88,0.00,,,0.00,Wunderground v.1.15,2013-08-17 09:05:00,
2013-08-17 04:10:00,70.0,66.6,29.78,NE,50,0.0,12.0,89,0.00,,,0.00,Wunderground v.1.15,2013-08-17 09:10:00,
2013-08-17 04:15:00,69.8,66.4,29.78,NE,50,0.0,12.0,89,0.00,,,0.00,Wunderground v.1.15,2013-08-17 09:15:00,
2013-08-17 04:20:00,69.6,66.5,29.78,NE,49,0.0,12.0,90,0.00,,,0.00,Wunderground v.1.15,2013-08-17 09:20:00,
2013-08-17 04:25:00,69.5,66.4,29.78,NE,50,0.0,12.0,90,0.00,,,0.00,Wunderground v.1.15,2013-08-17 09:25:00,
2013-08-17 04:30:00,70.2,67.1,29.78,NE,50,0.0,12.0,90,0.00,,,0.00,Wunderground v.1.15,2013-08-17 09:30:00,
2013-08-17 04:40:00,70.5,67.1,29.77,NE,56,0.0,12.0,89,0.00,,,0.00,Wunderground v.1.15,2013-08-17 09:40:00,
2013-08-17 04:45:00,70.7,67.0,29.77,NE,56,0.0,12.0,88,0.00,,,0.00,Wunderground v.1.15,2013-08-17 09:45:00,
2013-08-17 04:50:00,70.1,66.4,29.77,NE,56,0.0,12.0,88,0.00,,,0.00,Wunderground v.1.15,2013-08-17 09:50:00,
2013-08-17 04:55:00,69.6,66.2,29.77,NE,56,0.0,12.0,89,0.00,,,0.00,Wunderground v.1.15,2013-08-17 09:55:00,
2013-08-17 05:00:00,69.3,65.9,29.77,NE,56,0.0,12.0,89,0.00,,,0.00,Wunderground v.1.15,2013-08-17 10:00:00,
2013-08-17 05:05:00,69.2,66.5,29.77,NE,56,0.0,12.0,91,0.00,,,0.00,Wunderground v.1.15,2013-08-17 10:05:00,
2013-08-17 05:10:00,69.5,66.8,29.78,NE,56,0.0,12.0,91,0.00,,,0.00,Wunderground v.1.15,2013-08-17 10:10:00,
2013-08-17 05:15:00,69.4,66.3,29.78,NE,56,0.0,12.0,90,0.00,,,0.00,Wunderground v.1.15,2013-08-17 10:15:00,
2013-08-17 05:20:00,68.9,65.8,29.78,NE,56,0.0,12.0,90,0.00,,,0.00,Wunderground v.1.15,2013-08-17 10:20:00,
2013-08-17 05:25:00,68.7,66.0,29.77,NE,56,0.0,12.0,91,0.00,,,0.00,Wunderground v.1.15,2013-08-17 10:25:00,
2013-08-17 05:30:00,68.5,65.8,29.77,NE,56,0.0,12.0,91,0.00,,,0.00,Wunderground v.1.15,2013-08-17 10:30:00,
2013-08-17 05:35:00,68.3,65.9,29.77,NE,56,0.0,12.0,92,0.00,,,0.00,Wunderground v.1.15,2013-08-17 10:35:00,
2013-08-17 05:45:00,68.1,65.7,29.77,NE,56,0.0,12.0,92,0.00,,,0.00,Wunderground v.1.15,2013-08-17 10:45:00,
2013-08-17 05:50:00,68.1,66.0,29.77,NE,56,0.0,12.0,93,0.00,,,0.00,Wunderground v.1.15,2013-08-17 10:50:00,
2013-08-17 06:00:00,67.9,65.8,29.78,NE,56,0.0,12.0,93,0.00,,,0.00,Wunderground v.1.15,2013-08-17 11:00:00,
2013-08-17 06:05:00,67.9,65.8,29.78,NE,56,0.0,12.0,93,0.00,,,0.00,Wunderground v.1.15,2013-08-17 11:05:00,
2013-08-17 06:10:00,67.9,65.8,29.78,NE,56,0.0,12.0,93,0.00,,,0.00,Wunderground v.1.15,2013-08-17 11:10:00,
2013-08-17 06:15:00,68.2,66.1,29.78,NE,56,0.0,12.0,93,0.00,,,0.00,Wunderground v.1.15,2013-08-17 11:15:00,
2013-08-17 06:20:00,69.3,67.2,29.78,NE,56,0.0,12.0,93,0.00,,,0.00,Wunderground v.1.15,2013-08-17 11:20:00,
2013-08-17 06:25:00,69.6,66.5,29.79,NE,56,0.0,12.0,90,0.00,,,0.00,Wunderground v.1.15,2013-08-17 11:25:00,
2013-08-17 06:35:00,68.3,65.6,29.79,NE,56,0.0,12.0,91,0.00,,,0.00,Wunderground v.1.15,2013-08-17 11:35:00,
2013-08-17 06:40:00,68.0,65.6,29.79,NE,56,0.0,12.0,92,0.00,,,0.00,Wunderground v.1.15,2013-08-17 11:40:00,
2013-08-17 06:50:00,67.8,65.7,29.79,NE,56,0.0,12.0,93,0.00,,,0.00,Wunderground v.1.15,2013-08-17 11:50:00,
2013-08-17 06:55:00,68.2,66.1,29.79,NE,56,0.0,12.0,93,0.00,,,0.00,Wunderground v.1.15,2013-08-17 11:55:00,
2013-08-17 07:00:00,68.3,65.9,29.79,NE,56,0.0,12.0,92,0.00,,,0.00,Wunderground v.1.15,2013-08-17 12:00:00,
2013-08-17 07:10:00,68.6,66.5,29.80,East,80,0.0,12.0,93,0.00,,,0.00,Wunderground v.1.15,2013-08-17 12:10:00,
2013-08-17 07:15:00,68.6,66.2,29.80,ENE,73,0.0,12.0,92,0.00,,,0.00,Wunderground v.1.15,2013-08-17 12:15:00,
2013-08-17 07:20:00,68.8,66.1,29.80,ENE,66,0.0,12.0,91,0.00,,,0.00,Wunderground v.1.15,2013-08-17 12:20:00,
2013-08-17 07:25:00,68.7,66.0,29.80,ESE,102,0.0,12.0,91,0.00,,,0.00,Wunderground v.1.15,2013-08-17 12:25:00,
2013-08-17 07:30:00,68.7,66.0,29.80,ESE,111,0.0,12.0,91,0.00,,,0.00,Wunderground v.1.15,2013-08-17 12:30:00,
2013-08-17 07:40:00,68.5,66.1,29.81,ESE,109,0.0,12.0,92,0.00,,,0.00,Wunderground v.1.15,2013-08-17 12:40:00,
2013-08-17 07:45:00,68.6,66.2,29.81,ESE,108,0.0,12.0,92,0.00,,,0.00,Wunderground v.1.15,2013-08-17 12:45:00,
2013-08-17 07:55:00,68.8,66.4,29.81,East,87,0.0,12.0,92,0.00,,,0.00,Wunderground v.1.15,2013-08-17 12:55:00,
2013-08-17 08:00:00,69.1,66.4,29.81,East,87,0.0,12.0,91,0.00,,,0.00,Wunderground v.1.15,2013-08-17 13:00:00,
2013-08-17 08:05:00,69.5,66.8,29.81,East,101,0.0,12.0,91,0.00,,,0.00,Wunderground v.1.15,2013-08-17 13:05:00,
2013-08-17 08:10:00,70.0,66.6,29.81,East,98,0.0,12.0,89,0.00,,,0.00,Wunderground v.1.15,2013-08-17 13:10:00,
2013-08-17 08:15:00,70.4,67.3,29.81,East,82,0.0,12.0,90,0.00,,,0.00,Wunderground v.1.15,2013-08-17 13:15:00,
2013-08-17 08:20:00,70.7,67.0,29.81,ENE,72,0.0,12.0,88,0.00,,,0.00,Wunderground v.1.15,2013-08-17 13:20:00,
2013-08-17 08:25:00,70.4,66.7,29.81,East,101,2.0,12.0,88,0.00,,,0.00,Wunderground v.1.15,2013-08-17 13:25:00,
2013-08-17 08:30:00,70.3,66.6,29.81,East,80,3.0,3.0,88,0.00,,,0.00,Wunderground v.1.15,2013-08-17 13:30:00,
2013-08-17 08:35:00,70.4,66.7,29.81,ENE,75,2.0,12.0,88,0.00,,,0.00,Wunderground v.1.15,2013-08-17 13:35:00,
2013-08-17 08:45:00,71.6,67.5,29.81,East,82,1.0,4.0,87,0.00,,,0.00,Wunderground v.1.15,2013-08-17 13:45:00,
2013-08-17 08:55:00,72.1,67.7,29.81,ENE,75,2.0,12.0,86,0.00,,,0.00,Wunderground v.1.15,2013-08-17 13:55:00,
2013-08-17 09:00:00,73.1,68.0,29.81,ENE,74,0.0,12.0,84,0.00,,,0.00,Wunderground v.1.15,2013-08-17 14:00:00,
2013-08-17 09:05:00,73.1,67.6,29.81,East,87,0.0,12.0,83,0.00,,,0.00,Wunderground v.1.15,2013-08-17 14:05:00,
2013-08-17 09:10:00,73.5,68.0,29.81,East,86,0.0,12.0,83,0.00,,,0.00,Wunderground v.1.15,2013-08-17 14:10:00,
2013-08-17 09:15:00,72.9,67.4,29.81,ESE,107,2.0,12.0,83,0.00,,,0.00,Wunderground v.1.15,2013-08-17 14:15:00,
2013-08-17 09:25:00,73.1,67.6,29.81,ENE,60,3.0,12.0,83,0.00,,,0.00,Wunderground v.1.15,2013-08-17 14:25:00,
2013-08-17 09:30:00,72.8,67.0,29.81,East,92,4.0,12.0,82,0.00,,,0.00,Wunderground v.1.15,2013-08-17 14:30:00,
2013-08-17 09:35:00,72.5,67.0,29.81,ESE,107,5.0,12.0,83,0.00,,,0.00,Wunderground v.1.15,2013-08-17 14:35:00,
2013-08-17 09:45:00,72.4,66.9,29.82,ENE,75,5.0,12.0,83,0.00,,,0.00,Wunderground v.1.15,2013-08-17 14:45:00,
2013-08-17 09:50:00,73.2,67.4,29.82,ESE,102,5.0,12.0,82,0.00,,,0.00,Wunderground v.1.15,2013-08-17 14:50:00,
2013-08-17 10:00:00,73.8,66.9,29.82,ENE,74,5.0,12.0,79,0.00,,,0.00,Wunderground v.1.15,2013-08-17 15:00:00,
2013-08-17 10:05:00,73.4,67.2,29.82,East,84,4.0,12.0,81,0.00,,,0.00,Wunderground v.1.15,2013-08-17 15:05:00,
2013-08-17 10:10:00,73.9,67.7,29.82,ENE,78,2.0,12.0,81,0.00,,,0.00,Wunderground v.1.15,2013-08-17 15:10:00,
2013-08-17 10:15:00,74.4,67.1,29.82,ESE,113,3.0,12.0,78,0.00,,,0.00,Wunderground v.1.15,2013-08-17 15:15:00,
2013-08-17 10:20:00,74.8,67.1,29.82,East,98,5.0,5.0,77,0.00,,,0.00,Wunderground v.1.15,2013-08-17 15:20:00,
2013-08-17 10:30:00,74.5,67.2,29.82,North,11,5.0,12.0,78,0.00,,,0.00,Wunderground v.1.15,2013-08-17 15:30:00,
2013-08-17 10:35:00,75.1,67.4,29.82,ENE,75,6.0,12.0,77,0.00,,,0.00,Wunderground v.1.15,2013-08-17 15:35:00,
2013-08-17 10:40:00,75.6,67.1,29.82,ENE,74,6.0,12.0,75,0.00,,,0.00,Wunderground v.1.15,2013-08-17 15:40:00,
2013-08-17 10:50:00,76.0,67.9,29.82,East,91,5.0,5.0,76,0.00,,,0.00,Wunderground v.1.15,2013-08-17 15:50:00,
2013-08-17 10:55:00,75.9,67.4,29.82,ESE,117,4.0,12.0,75,0.00,,,0.00,Wunderground v.1.15,2013-08-17 15:55:00,
2013-08-17 11:05:00,75.9,67.8,29.82,East,91,4.0,12.0,76,0.00,,,0.00,Wunderground v.1.15,2013-08-17 16:05:00,
2013-08-17 11:10:00,76.1,68.0,29.82,NE,38,3.0,12.0,76,0.00,,,0.00,Wunderground v.1.15,2013-08-17 16:10:00,
2013-08-17 11:15:00,75.1,67.0,29.82,NE,55,4.0,12.0,76,0.00,,,0.00,Wunderground v.1.15,2013-08-17 16:15:00,
2013-08-17 11:20:00,74.7,67.0,29.82,East,90,6.0,12.0,77,0.00,,,0.00,Wunderground v.1.15,2013-08-17 16:20:00,
2013-08-17 11:25:00,75.0,67.3,29.82,NE,34,4.0,12.0,77,0.00,,,0.00,Wunderground v.1.15,2013-08-17 16:25:00,
2013-08-17 11:30:00,75.4,67.7,29.82,ESE,115,4.0,12.0,77,0.00,,,0.00,Wunderground v.1.15,2013-08-17 16:30:00,
2013-08-17 11:40:00,75.9,67.4,29.82,East,99,5.0,12.0,75,0.00,,,0.00,Wunderground v.1.15,2013-08-17 16:40:00,
2013-08-17 11:45:00,76.0,67.5,29.82,NE,53,4.0,12.0,75,0.00,,,0.00,Wunderground v.1.15,2013-08-17 16:45:00,
2013-08-17 11:55:00,75.9,67.4,29.82,ENE,74,3.0,12.0,75,0.00,,,0.00,Wunderground v.1.15,2013-08-17 16:55:00,
2013-08-17 12:00:00,75.8,67.3,29.82,ENE,72,4.0,4.0,75,0.00,,,0.00,Wunderground v.1.15,2013-08-17 17:00:00,
2013-08-17 12:05:00,75.7,67.2,29.82,ESE,117,4.0,12.0,75,0.00,,,0.00,Wunderground v.1.15,2013-08-17 17:05:00,
2013-08-17 12:15:00,76.5,67.6,29.81,NE,48,5.0,12.0,74,0.00,,,0.00,Wunderground v.1.15,2013-08-17 17:15:00,
2013-08-17 12:20:00,76.9,68.0,29.81,NE,56,6.0,12.0,74,0.00,,,0.00,Wunderground v.1.15,2013-08-17 17:20:00,
2013-08-17 12:25:00,77.7,68.4,29.80,East,80,5.0,12.0,73,0.00,,,0.00,Wunderground v.1.15,2013-08-17 17:25:00,
2013-08-17 12:30:00,78.0,67.8,29.80,ENE,74,4.0,12.0,71,0.00,,,0.00,Wunderground v.1.15,2013-08-17 17:30:00,
2013-08-17 12:35:00,77.4,67.7,29.80,SE,128,6.0,12.0,72,0.00,,,0.00,Wunderground v.1.15,2013-08-17 17:35:00,
2013-08-17 12:45:00,77.8,68.0,29.80,NE,48,5.0,12.0,72,0.00,,,0.00,Wunderground v.1.15,2013-08-17 17:45:00,
2013-08-17 12:50:00,77.2,67.9,29.80,East,92,5.0,5.0,73,0.00,,,0.00,Wunderground v.1.15,2013-08-17 17:50:00,
2013-08-17 13:00:00,78.1,68.3,29.80,ENE,57,4.0,4.0,72,0.00,,,0.00,Wunderground v.1.15,2013-08-17 18:00:00,
2013-08-17 13:05:00,78.7,68.5,29.80,East,82,4.0,5.0,71,0.00,,,0.00,Wunderground v.1.15,2013-08-17 18:05:00,
2013-08-17 13:10:00,78.7,69.3,29.80,ENE,60,4.0,12.0,73,0.00,,,0.00,Wunderground v.1.15,2013-08-17 18:10:00,
2013-08-17 13:20:00,77.6,68.3,29.80,ENE,74,7.0,7.0,73,0.00,,,0.00,Wunderground v.1.15,2013-08-17 18:20:00,
2013-08-17 13:25:00,76.9,68.4,29.79,NE,46,5.0,12.0,75,0.00,,,0.00,Wunderground v.1.15,2013-08-17 18:25:00,
2013-08-17 13:30:00,77.4,68.9,29.79,ENE,65,4.0,12.0,75,0.00,,,0.00,Wunderground v.1.15,2013-08-17 18:30:00,
2013-08-17 13:35:00,78.0,68.6,29.79,NE,52,5.0,12.0,73,0.00,,,0.00,Wunderground v.1.15,2013-08-17 18:35:00,
2013-08-17 13:40:00,77.7,68.4,29.79,NNW,342,4.0,4.0,73,0.00,,,0.00,Wunderground v.1.15,2013-08-17 18:40:00,
2013-08-17 13:45:00,77.9,68.5,29.79,ENE,63,3.0,8.0,73,0.00,,,0.00,Wunderground v.1.15,2013-08-17 18:45:00,
2013-08-17 13:55:00,78.4,67.8,29.78,NE,39,6.0,6.0,70,0.00,,,0.00,Wunderground v.1.15,2013-08-17 18:55:00,
2013-08-17 14:05:00,77.0,69.2,29.78,North,5,7.0,12.0,77,0.00,,,0.00,Wunderground v.1.15,2013-08-17 19:05:00,
2013-08-17 14:10:00,76.6,69.2,29.78,NNE,18,7.0,7.0,78,0.00,,,0.00,Wunderground v.1.15,2013-08-17 19:10:00,
2013-08-17 14:15:00,76.6,69.6,29.78,NE,44,6.0,9.0,79,0.00,,,0.00,Wunderground v.1.15,2013-08-17 19:15:00,
2013-08-17 14:20:00,76.0,69.0,29.78,East,88,7.0,7.0,79,0.00,,,0.00,Wunderground v.1.15,2013-08-17 19:20:00,
2013-08-17 14:30:00,75.2,69.3,29.78,East,92,6.0,6.0,82,0.00,,,0.00,Wunderground v.1.15,2013-08-17 19:30:00,
2013-08-17 14:35:00,76.1,69.8,29.78,ENE,57,4.0,12.0,81,0.00,,,0.00,Wunderground v.1.15,2013-08-17 19:35:00,
2013-08-17 14:40:00,76.9,69.9,29.77,NE,55,5.0,12.0,79,0.00,,,0.00,Wunderground v.1.15,2013-08-17 19:40:00,
2013-08-17 14:45:00,77.1,69.7,29.77,ENE,70,7.0,12.0,78,0.00,,,0.00,Wunderground v.1.15,2013-08-17 19:45:00,
2013-08-17 14:55:00,77.3,69.9,29.77,ENE,57,3.0,8.0,78,0.00,,,0.00,Wunderground v.1.15,2013-08-17 19:55:00,
2013-08-17 15:05:00,76.6,68.8,29.77,SE,134,5.0,12.0,77,0.00,,,0.00,Wunderground v.1.15,2013-08-17 20:05:00,
2013-08-17 15:10:00,77.1,68.9,29.76,East,81,4.0,4.0,76,0.00,,,0.00,Wunderground v.1.15,2013-08-17 20:10:00,
2013-08-17 15:15:00,77.8,69.2,29.76,ESE,121,2.0,12.0,75,0.00,,,0.00,Wunderground v.1.15,2013-08-17 20:15:00,
2013-08-17 15:20:00,78.0,69.0,29.76,ESE,122,1.0,12.0,74,0.00,,,0.00,Wunderground v.1.15,2013-08-17 20:20:00,
2013-08-17 15:25:00,78.6,70.0,29.76,SE,134,4.0,12.0,75,0.00,,,0.00,Wunderground v.1.15,2013-08-17 20:25:00,
2013-08-17 15:35:00,78.7,69.3,29.76,ESE,114,2.0,12.0,73,0.00,,,0.00,Wunderground v.1.15,2013-08-17 20:35:00,
2013-08-17 15:40:00,79.3,69.1,29.76,East,97,1.0,12.0,71,0.00,,,0.00,Wunderground v.1.15,2013-08-17 20:40:00,
2013-08-17 15:45:00,79.4,69.2,29.76,ESE,118,2.0,12.0,71,0.00,,,0.00,Wunderground v.1.15,2013-08-17 20:45:00,
2013-08-17 15:50:00,79.4,69.6,29.76,ESE,117,3.0,3.0,72,0.00,,,0.00,Wunderground v.1.15,2013-08-17 20:50:00,
2013-08-17 16:00:00,78.5,68.7,29.76,ENE,60,3.0,3.0,72,0.00,,,0.00,Wunderground v.1.15,2013-08-17 21:00:00,
2013-08-17 16:10:00,79.6,69.0,29.75,NE,45,5.0,5.0,70,0.00,,,0.00,Wunderground v.1.15,2013-08-17 21:10:00,
2013-08-17 16:15:00,79.8,68.7,29.75,ESE,106,5.0,12.0,69,0.00,,,0.00,Wunderground v.1.15,2013-08-17 21:15:00,
2013-08-17 16:20:00,80.1,69.0,29.75,NE,46,2.0,12.0,69,0.00,,,0.00,Wunderground v.1.15,2013-08-17 21:20:00,
2013-08-17 16:25:00,80.1,68.6,29.75,ENE,69,2.0,12.0,68,0.00,,,0.00,Wunderground v.1.15,2013-08-17 21:25:00,
2013-08-17 16:30:00,79.4,67.9,29.75,ENE,67,3.0,12.0,68,0.00,,,0.00,Wunderground v.1.15,2013-08-17 21:30:00,
2013-08-17 16:35:00,79.4,68.3,29.75,ESE,113,4.0,12.0,69,0.00,,,0.00,Wunderground v.1.15,2013-08-17 21:35:00,
2013-08-17 16:45:00,80.2,69.1,29.75,East,84,5.0,12.0,69,0.00,,,0.00,Wunderground v.1.15,2013-08-17 21:45:00,
2013-08-17 16:50:00,79.9,68.4,29.75,ENE,67,6.0,6.0,68,0.00,,,0.00,Wunderground v.1.15,2013-08-17 21:50:00,
2013-08-17 16:55:00,79.9,68.4,29.75,NE,44,4.0,12.0,68,0.00,,,0.00,Wunderground v.1.15,2013-08-17 21:55:00,
2013-08-17 17:05:00,80.2,68.2,29.75,NE,44,1.0,12.0,67,0.00,,,0.00,Wunderground v.1.15,2013-08-17 22:05:00,
2013-08-17 17:10:00,80.5,68.5,29.75,ENE,67,1.0,12.0,67,0.00,,,0.00,Wunderground v.1.15,2013-08-17 22:10:00,
2013-08-17 17:20:00,80.6,68.6,29.75,NE,52,4.0,12.0,67,0.00,,,0.00,Wunderground v.1.15,2013-08-17 22:20:00,
2013-08-17 17:25:00,80.2,68.2,29.75,NE,48,4.0,12.0,67,0.00,,,0.00,Wunderground v.1.15,2013-08-17 22:25:00,
2013-08-17 17:30:00,79.9,68.0,29.75,ENE,65,5.0,12.0,67,0.00,,,0.00,Wunderground v.1.15,2013-08-17 22:30:00,
2013-08-17 17:35:00,79.5,68.4,29.75,ENE,59,5.0,12.0,69,0.00,,,0.00,Wunderground v.1.15,2013-08-17 22:35:00,
2013-08-17 17:40:00,79.8,68.7,29.75,NE,48,4.0,4.0,69,0.00,,,0.00,Wunderground v.1.15,2013-08-17 22:40:00,
2013-08-17 17:50:00,81.1,68.7,29.75,ESE,103,1.0,12.0,66,0.00,,,0.00,Wunderground v.1.15,2013-08-17 22:50:00,
2013-08-17 17:55:00,79.6,69.0,29.75,SE,125,5.0,12.0,70,0.00,,,0.00,Wunderground v.1.15,2013-08-17 22:55:00,
2013-08-17 18:00:00,78.1,68.7,29.75,SE,126,9.0,12.0,73,0.00,,,0.00,Wunderground v.1.15,2013-08-17 23:00:00,
2013-08-17 18:10:00,75.4,67.3,29.75,SSE,151,7.0,7.0,76,0.00,,,0.00,Wunderground v.1.15,2013-08-17 23:10:00,
2013-08-17 18:15:00,74.7,67.8,29.75,SSE,153,4.0,12.0,79,0.00,,,0.00,Wunderground v.1.15,2013-08-17 23:15:00,
2013-08-17 18:25:00,74.4,68.2,29.75,SE,146,1.0,12.0,81,0.00,,,0.00,Wunderground v.1.15,2013-08-17 23:25:00,
2013-08-17 18:30:00,74.5,68.6,29.75,South,173,0.0,12.0,82,0.00,,,0.00,Wunderground v.1.15,2013-08-17 23:30:00,
2013-08-17 18:35:00,74.6,68.4,29.75,South,173,0.0,12.0,81,0.00,,,0.00,Wunderground v.1.15,2013-08-17 23:35:00,
2013-08-17 18:40:00,74.6,68.7,29.76,South,172,0.0,12.0,82,0.00,,,0.00,Wunderground v.1.15,2013-08-17 23:40:00,
2013-08-17 18:45:00,74.8,68.9,29.76,South,172,0.0,12.0,82,0.00,,,0.00,Wunderground v.1.15,2013-08-17 23:45:00,
2013-08-17 18:50:00,74.7,68.8,29.76,South,172,0.0,12.0,82,0.00,,,0.00,Wunderground v.1.15,2013-08-17 23:50:00,
2013-08-17 19:00:00,74.7,68.8,29.76,NE,44,1.0,12.0,82,0.00,,,0.00,Wunderground v.1.15,2013-08-18 00:00:00,
2013-08-17 19:05:00,74.6,68.7,29.76,NE,48,5.0,12.0,82,0.00,,,0.00,Wunderground v.1.15,2013-08-18 00:05:00,
2013-08-17 19:10:00,74.9,69.4,29.76,NE,53,7.0,7.0,83,0.00,,,0.00,Wunderground v.1.15,2013-08-18 00:10:00,
2013-08-17 19:20:00,74.3,69.1,29.76,NE,51,3.0,3.0,84,0.00,,,0.00,Wunderground v.1.15,2013-08-18 00:20:00,
2013-08-17 19:25:00,74.6,69.8,29.77,NE,51,1.0,12.0,85,0.00,,,0.00,Wunderground v.1.15,2013-08-18 00:25:00,
2013-08-17 19:35:00,73.4,69.0,29.77,NW,310,1.0,12.0,86,0.00,,,0.00,Wunderground v.1.15,2013-08-18 00:35:00,
2013-08-17 19:40:00,72.6,68.5,29.77,NW,310,1.0,1.0,87,0.00,,,0.00,Wunderground v.1.15,2013-08-18 00:40:00,
2013-08-17 19:45:00,72.1,68.3,29.77,NW,310,0.0,12.0,88,0.00,,,0.00,Wunderground v.1.15,2013-08-18 00:45:00,
2013-08-17 19:50:00,72.2,68.8,29.77,NW,313,0.0,12.0,89,0.00,,,0.00,Wunderground v.1.15,2013-08-18 00:50:00,
2013-08-17 19:55:00,72.4,69.0,29.77,NW,313,0.0,12.0,89,0.00,,,0.00,Wunderground v.1.15,2013-08-18 00:55:00,
2013-08-17 20:05:00,73.8,69.7,29.77,NE,43,0.0,12.0,87,0.00,,,0.00,Wunderground v.1.15,2013-08-18 01:05:00,
2013-08-17 20:10:00,73.5,69.1,29.77,NNE,21,0.0,12.0,86,0.00,,,0.00,Wunderground v.1.15,2013-08-18 01:10:00,
2013-08-17 20:15:00,72.8,68.7,29.77,North,360,0.0,12.0,87,0.00,,,0.00,Wunderground v.1.15,2013-08-18 01:15:00,
2013-08-17 20:25:00,72.6,68.8,29.76,North,360,0.0,12.0,88,0.00,,,0.00,Wunderground v.1.15,2013-08-18 01:25:00,
2013-08-17 20:30:00,72.6,69.2,29.76,North,360,0.0,12.0,89,0.00,,,0.00,Wunderground v.1.15,2013-08-18 01:30:00,
2013-08-17 20:40:00,72.4,69.0,29.77,North,360,0.0,12.0,89,0.00,,,0.00,Wunderground v.1.15,2013-08-18 01:40:00,
2013-08-17 20:45:00,72.2,69.1,29.77,North,360,0.0,12.0,90,0.00,,,0.00,Wunderground v.1.15,2013-08-18 01:45:00,
2013-08-17 20:50:00,72.2,69.4,29.77,North,360,0.0,12.0,91,0.00,,,0.00,Wunderground v.1.15,2013-08-18 01:50:00,
2013-08-17 20:55:00,72.2,69.4,29.77,North,360,0.0,12.0,91,0.00,,,0.00,Wunderground v.1.15,2013-08-18 01:55:00,
2013-08-17 21:00:00,72.6,69.8,29.77,North,5,0.0,12.0,91,0.00,,,0.00,Wunderground v.1.15,2013-08-18 02:00:00,
2013-08-17 21:05:00,73.9,70.5,29.77,NNE,21,0.0,12.0,89,0.00,,,0.00,Wunderground v.1.15,2013-08-18 02:05:00,
2013-08-17 21:15:00,72.9,69.5,29.77,NNE,24,0.0,12.0,89,0.00,,,0.00,Wunderground v.1.15,2013-08-18 02:15:00,
2013-08-17 21:20:00,72.6,69.5,29.77,NNE,24,0.0,12.0,90,0.00,,,0.00,Wunderground v.1.15,2013-08-18 02:20:00,
2013-08-17 21:30:00,72.3,69.5,29.77,NNE,25,0.0,12.0,91,0.00,,,0.00,Wunderground v.1.15,2013-08-18 02:30:00,
2013-08-17 21:35:00,72.6,69.8,29.77,NNE,27,0.0,12.0,91,0.00,,,0.00,Wunderground v.1.15,2013-08-18 02:35:00,
2013-08-17 21:40:00,73.0,69.9,29.78,NE,40,1.0,12.0,90,0.00,,,0.00,Wunderground v.1.15,2013-08-18 02:40:00,
2013-08-17 21:50:00,73.4,70.0,29.78,NE,41,1.0,12.0,89,0.00,,,0.00,Wunderground v.1.15,2013-08-18 02:50:00,
2013-08-17 21:55:00,72.5,69.1,29.78,NE,56,3.0,12.0,89,0.00,,,0.00,Wunderground v.1.15,2013-08-18 02:55:00,
2013-08-17 22:00:00,71.9,68.8,29.78,NE,48,4.0,4.0,90,0.00,,,0.00,Wunderground v.1.15,2013-08-18 03:00:00,
2013-08-17 22:05:00,71.6,68.5,29.78,NE,51,2.0,12.0,90,0.00,,,0.00,Wunderground v.1.15,2013-08-18 03:05:00,
2013-08-17 22:10:00,71.8,68.4,29.78,NE,56,1.0,1.0,89,0.00,,,0.00,Wunderground v.1.15,2013-08-18 03:10:00,
2013-08-17 22:20:00,71.8,68.1,29.78,ENE,59,0.0,12.0,88,0.00,,,0.00,Wunderground v.1.15,2013-08-18 03:20:00,
2013-08-17 22:25:00,71.9,68.5,29.79,ENE,60,0.0,12.0,89,0.00,,,0.00,Wunderground v.1.15,2013-08-18 03:25:00,
2013-08-17 22:35:00,72.5,68.4,29.79,ENE,60,0.0,12.0,87,0.00,,,0.00,Wunderground v.1.15,2013-08-18 03:35:00,
2013-08-17 22:40:00,72.5,68.4,29.79,ENE,59,0.0,12.0,87,0.00,,,0.00,Wunderground v.1.15,2013-08-18 03:40:00,
2013-08-17 22:45:00,71.6,67.9,29.79,ENE,59,0.0,12.0,88,0.00,,,0.00,Wunderground v.1.15,2013-08-18 03:45:00,
2013-08-17 22:55:00,71.1,67.7,29.79,ENE,59,0.0,12.0,89,0.00,,,0.00,Wunderground v.1.15,2013-08-18 03:55:00,
2013-08-17 23:00:00,70.9,67.8,29.79,ENE,59,0.0,12.0,90,0.00,,,0.00,Wunderground v.1.15,2013-08-18 04:00:00,
2013-08-17 23:05:00,70.8,67.7,29.79,ENE,59,0.0,12.0,90,0.00,,,0.00,Wunderground v.1.15,2013-08-18 04:05:00,
2013-08-17 23:10:00,70.8,68.0,29.79,ENE,59,0.0,12.0,91,0.00,,,0.00,Wunderground v.1.15,2013-08-18 04:10:00,
2013-08-17 23:15:00,71.5,68.4,29.79,ENE,59,0.0,12.0,90,0.00,,,0.00,Wunderground v.1.15,2013-08-18 04:15:00,
2013-08-17 23:20:00,71.6,68.2,29.79,ENE,59,0.0,12.0,89,0.00,,,0.00,Wunderground v.1.15,2013-08-18 04:20:00,
2013-08-17 23:25:00,71.6,67.9,29.79,ENE,59,0.0,12.0,88,0.00,,,0.00,Wunderground v.1.15,2013-08-18 04:25:00,
2013-08-17 23:30:00,71.3,67.9,29.79,ENE,60,0.0,12.0,89,0.00,,,0.00,Wunderground v.1.15,2013-08-18 04:30:00,
2013-08-17 23:35:00,70.9,67.8,29.79,ENE,60,0.0,12.0,90,0.00,,,0.00,Wunderground v.1.15,2013-08-18 04:35:00,
2013-08-17 23:40:00,70.6,67.5,29.80,ENE,60,0.0,12.0,90,0.00,,,0.00,Wunderground v.1.15,2013-08-18 04:40:00,
2013-08-17 23:45:00,70.5,67.7,29.80,ENE,60,0.0,12.0,91,0.00,,,0.00,Wunderground v.1.15,2013-08-18 04:45:00,
2013-08-17 23:50:00,70.4,67.6,29.80,ENE,60,0.0,12.0,91,0.00,,,0.00,Wunderground v.1.15,2013-08-18 04:50:00,
2013-08-17 23:55:00,70.4,67.6,29.79,ENE,60,0.0,12.0,91,0.00,,,0.00,Wunderground v.1.15,2013-08-18 04:55:00,